createdAt,value
2023-01-06T00:00:51.867Z,100572.50
2023-01-06T00:03:18.296Z,100568.91
2023-01-06T00:05:44.632Z,100580.81
2023-01-06T00:08:11.008Z,100581.25
2023-01-06T00:10:37.408Z,100582.03
2023-01-06T00:13:03.822Z,100584.81
2023-01-06T00:18:13.899Z,100603.44
2023-01-06T00:20:40.246Z,100605.03
2023-01-06T00:23:06.653Z,100608.22
2023-01-06T00:25:33.030Z,100619.34
2023-01-06T00:27:59.371Z,100619.72
2023-01-06T00:33:19.558Z,100622.50
2023-01-06T00:35:45.992Z,100632.44
2023-01-06T00:38:12.368Z,100642.34
2023-01-06T00:40:38.721Z,100658.22
2023-01-06T00:43:05.113Z,100660.22
2023-01-06T00:48:15.566Z,100665.41
2023-01-06T00:50:42.075Z,100667.34
2023-01-06T00:53:08.483Z,100678.47
2023-01-06T00:55:34.853Z,100682.44
2023-01-06T00:58:01.222Z,100676.13
2023-01-06T01:03:24.563Z,100680.06
2023-01-06T01:05:50.964Z,100684.44
2023-01-06T01:08:17.357Z,100681.25
2023-01-06T01:10:43.703Z,100678.91
2023-01-06T01:13:10.083Z,100682.84
2023-01-06T01:18:20.539Z,100705.09
2023-01-06T01:20:46.875Z,100719.38
2023-01-06T01:23:13.227Z,100720.97
2023-01-06T01:25:39.643Z,100716.59
2023-01-06T01:28:06.027Z,100723.34
2023-01-06T01:33:16.081Z,100741.59
2023-01-06T01:35:45.238Z,100743.97
2023-01-06T01:38:11.661Z,100742.81
2023-01-06T01:40:37.993Z,100757.47
2023-01-06T01:43:04.396Z,100763.03
2023-01-06T01:48:24.497Z,100756.69
2023-01-06T01:50:50.922Z,100774.16
2023-01-06T01:53:17.313Z,100784.47
2023-01-06T01:55:43.706Z,100785.66
2023-01-06T01:58:10.048Z,100776.53
2023-01-06T02:03:20.217Z,100792.00
2023-01-06T02:05:46.592Z,100800.72
2023-01-06T02:08:13.009Z,100803.91
2023-01-06T02:10:39.357Z,100810.25
2023-01-06T02:13:05.712Z,100817.41
2023-01-06T02:18:26.058Z,100805.47
2023-01-06T02:20:52.412Z,100821.34
2023-01-06T02:23:18.842Z,100829.31
2023-01-06T02:25:45.229Z,100829.31
2023-01-06T02:28:11.593Z,100839.63
2023-01-06T02:30:37.940Z,100830.91
2023-01-06T02:33:04.343Z,100855.50
2023-01-06T02:35:33.478Z,100858.25
2023-01-06T02:37:59.860Z,100864.63
2023-01-06T02:40:26.197Z,100853.13
2023-01-06T02:42:55.356Z,100868.63
2023-01-06T02:45:21.697Z,100872.97
2023-01-06T02:47:48.079Z,100879.75
2023-01-06T02:50:14.459Z,100872.56
2023-01-06T02:52:40.810Z,100883.28
2023-01-06T02:55:07.190Z,100890.00
2023-01-06T02:57:33.555Z,100894.38
2023-01-06T02:59:59.957Z,100893.63
2023-01-06T03:02:26.364Z,100898.78
2023-01-06T03:04:52.778Z,100905.47
2023-01-06T03:07:19.207Z,100894.78
2023-01-06T03:09:45.570Z,100897.94
2023-01-06T03:12:11.909Z,100903.09
2023-01-06T03:14:38.258Z,100901.53
2023-01-06T03:17:04.689Z,100897.56
2023-01-06T03:19:31.038Z,100902.78
2023-01-06T03:21:57.383Z,100904.31
2023-01-06T03:24:23.751Z,100903.97
2023-01-06T03:26:50.109Z,100915.44
2023-01-06T03:29:16.464Z,100917.03
2023-01-06T03:31:42.891Z,100917.78
2023-01-06T03:37:03.356Z,100924.94
2023-01-06T03:39:29.702Z,100925.34
2023-01-06T03:41:56.071Z,100933.31
2023-01-06T03:44:22.496Z,100931.72
2023-01-06T03:46:48.911Z,100936.47
2023-01-06T03:51:59.000Z,100948.75
2023-01-06T03:54:25.355Z,100944.38
2023-01-06T03:56:51.715Z,100950.34
2023-01-06T03:59:18.097Z,100939.25
2023-01-06T04:01:44.497Z,100953.94
2023-01-06T04:06:54.962Z,100957.13
2023-01-06T04:09:21.279Z,100955.53
2023-01-06T04:11:47.652Z,100956.28
2023-01-06T04:14:13.996Z,100963.81
2023-01-06T04:16:40.371Z,100962.22
2023-01-06T04:22:00.811Z,100972.97
2023-01-06T04:24:29.952Z,100969.38
2023-01-06T04:26:59.116Z,100968.22
2023-01-06T04:29:28.298Z,100976.09
2023-01-06T04:31:54.690Z,100972.97
2023-01-06T04:37:04.874Z,100975.38
2023-01-06T04:39:31.218Z,100976.94
2023-01-06T04:41:57.586Z,100973.75
2023-01-06T04:44:23.942Z,100980.84
2023-01-06T04:46:50.331Z,100980.88
2023-01-06T04:52:00.438Z,100986.09
2023-01-06T04:54:26.788Z,100985.31
2023-01-06T04:56:53.128Z,100986.47
2023-01-06T04:59:19.511Z,100980.97
2023-01-06T05:01:45.917Z,100980.94
2023-01-06T05:07:06.128Z,100980.94
2023-01-06T05:09:32.474Z,100967.41
2023-01-06T05:12:01.602Z,100971.88
2023-01-06T05:14:27.988Z,100971.84
2023-01-06T05:16:57.140Z,100974.59
2023-01-06T05:22:17.465Z,100981.78
2023-01-06T05:24:43.913Z,100975.38
2023-01-06T05:27:10.295Z,100988.09
2023-01-06T05:29:36.780Z,100995.66
2023-01-06T05:32:03.183Z,101001.22
2023-01-06T05:37:13.564Z,101002.03
2023-01-06T05:39:39.903Z,101009.22
2023-01-06T05:42:06.274Z,101012.72
2023-01-06T05:44:35.421Z,101013.53
2023-01-06T05:47:01.845Z,101018.72
2023-01-06T05:52:22.164Z,101036.56
2023-01-06T05:54:48.582Z,101036.19
2023-01-06T05:57:14.949Z,101037.41
2023-01-06T05:59:41.310Z,101032.19
2023-01-06T06:02:07.742Z,101041.75
2023-01-06T06:07:18.174Z,101049.69
2023-01-06T06:09:44.583Z,101048.13
2023-01-06T06:12:11.892Z,101061.72
2023-01-06T06:14:39.149Z,101062.91
2023-01-06T06:17:06.422Z,101063.69
2023-01-06T06:22:17.727Z,101067.69
2023-01-06T06:24:44.105Z,101066.47
2023-01-06T06:27:11.405Z,101069.97
2023-01-06T06:29:37.762Z,101071.69
2023-01-06T06:32:04.134Z,101074.84
2023-01-06T06:34:30.813Z,101070.09
2023-01-06T06:36:57.455Z,101074.91
2023-01-06T06:39:24.166Z,101076.84
2023-01-06T06:41:50.814Z,101082.41
2023-01-06T06:44:17.223Z,101084.41
2023-01-06T06:46:43.590Z,101095.03
2023-01-06T06:49:10.025Z,101104.22
2023-01-06T06:51:37.004Z,101105.88
2023-01-06T06:54:03.444Z,101115.72
2023-01-06T06:56:29.837Z,101111.41
2023-01-06T06:58:56.222Z,101119.28
2023-01-06T07:01:22.691Z,101120.44
2023-01-06T07:03:49.109Z,101120.94
2023-01-06T07:06:15.653Z,101122.03
2023-01-06T07:08:42.084Z,101123.28
2023-01-06T07:11:08.461Z,101125.31
2023-01-06T07:13:34.851Z,101136.78
2023-01-06T07:16:01.231Z,101137.25
2023-01-06T07:18:27.635Z,101135.66
2023-01-06T07:20:54.111Z,101137.19
2023-01-06T07:23:20.561Z,101138.03
2023-01-06T07:25:46.982Z,101139.16
2023-01-06T07:28:13.355Z,101134.00
2023-01-06T07:30:39.719Z,101125.81
2023-01-06T07:33:06.123Z,101126.13
2023-01-06T07:35:32.483Z,101130.13
2023-01-06T07:40:52.720Z,101127.75
2023-01-06T07:43:19.132Z,101124.16
2023-01-06T07:45:45.506Z,101110.66
2023-01-06T07:48:11.908Z,101117.81
2023-01-06T07:50:38.349Z,101122.94
2023-01-06T07:55:48.341Z,101121.03
2023-01-06T07:58:14.735Z,101133.72
2023-01-06T08:00:41.112Z,101135.28
2023-01-06T08:03:07.586Z,101140.09
2023-01-06T08:05:34.037Z,101143.19
2023-01-06T08:10:57.163Z,101148.75
2023-01-06T08:13:23.743Z,101143.28
2023-01-06T08:15:50.182Z,101142.09
2023-01-06T08:18:16.548Z,101147.22
2023-01-06T08:20:43.002Z,101158.31
2023-01-06T08:25:54.332Z,101155.09
2023-01-06T08:28:20.683Z,101156.41
2023-01-06T08:30:47.109Z,101159.91
2023-01-06T08:33:13.562Z,101157.56
2023-01-06T08:35:39.946Z,101157.63
2023-01-06T08:41:00.347Z,101156.25
2023-01-06T08:43:26.736Z,101161.03
2023-01-06T08:45:53.116Z,101161.88
2023-01-06T08:48:19.483Z,101165.38
2023-01-06T08:50:45.864Z,101161.09
2023-01-06T08:55:57.091Z,101160.19
2023-01-06T08:58:23.465Z,101155.00
2023-01-06T09:00:49.877Z,101157.50
2023-01-06T09:03:16.265Z,101167.41
2023-01-06T09:05:42.636Z,101161.94
2023-01-06T09:11:03.092Z,101163.97
2023-01-06T09:13:29.519Z,101162.34
2023-01-06T09:15:55.926Z,101162.75
2023-01-06T09:18:22.291Z,101161.88
2023-01-06T09:20:48.680Z,101175.88
2023-01-06T09:26:00.166Z,101164.72
2023-01-06T09:28:26.545Z,101162.75
2023-01-06T09:30:52.949Z,101165.66
2023-01-06T09:33:19.512Z,101156.94
2023-01-06T09:35:45.901Z,101167.13
2023-01-06T09:41:06.493Z,101151.94
2023-01-06T09:43:32.898Z,101154.69
2023-01-06T09:45:59.263Z,101156.72
2023-01-06T09:48:25.627Z,101155.97
2023-01-06T09:50:52.004Z,101159.81
2023-01-06T09:56:02.069Z,101163.44
2023-01-06T09:58:28.448Z,101159.06
2023-01-06T10:00:54.845Z,101151.13
2023-01-06T10:03:21.169Z,101142.44
2023-01-06T10:05:47.562Z,101155.47
2023-01-06T10:08:13.953Z,101146.38
2023-01-06T10:10:40.465Z,101140.38
2023-01-06T10:13:06.854Z,101142.34
2023-01-06T10:15:33.248Z,101142.44
2023-01-06T10:17:59.639Z,101145.53
2023-01-06T10:20:26.022Z,101134.44
2023-01-06T10:22:52.400Z,101135.25
2023-01-06T10:25:18.763Z,101141.19
2023-01-06T10:27:45.128Z,101128.09
2023-01-06T10:30:11.518Z,101132.84
2023-01-06T10:32:37.979Z,101124.84
2023-01-06T10:35:05.267Z,101115.78
2023-01-06T10:37:31.723Z,101122.53
2023-01-06T10:39:58.133Z,101124.09
2023-01-06T10:42:24.555Z,101130.41
2023-01-06T10:44:50.984Z,101127.66
2023-01-06T10:47:17.388Z,101113.38
2023-01-06T10:49:43.728Z,101118.88
2023-01-06T10:52:10.111Z,101113.81
2023-01-06T10:54:36.502Z,101114.56
2023-01-06T10:57:02.865Z,101107.78
2023-01-06T10:59:29.244Z,101114.09
2023-01-06T11:01:55.732Z,101111.75
2023-01-06T11:04:22.230Z,101100.34
2023-01-06T11:06:48.640Z,101100.63
2023-01-06T11:09:15.023Z,101099.09
2023-01-06T11:14:35.515Z,101095.88
2023-01-06T11:17:01.982Z,101098.25
2023-01-06T11:19:28.342Z,101097.09
2023-01-06T11:21:54.702Z,101078.41
2023-01-06T11:24:21.937Z,101082.81
2023-01-06T11:29:32.452Z,101072.84
2023-01-06T11:31:58.814Z,101073.28
2023-01-06T11:34:25.205Z,101081.28
2023-01-06T11:36:51.601Z,101076.50
2023-01-06T11:39:18.062Z,101069.41
2023-01-06T11:44:38.456Z,101050.31
2023-01-06T11:47:04.850Z,101056.28
2023-01-06T11:49:31.191Z,101054.28
2023-01-06T11:51:57.568Z,101052.69
2023-01-06T11:54:23.961Z,101046.69
2023-01-06T11:59:44.308Z,101056.66
2023-01-06T12:02:11.616Z,101057.00
2023-01-06T12:04:38.029Z,101052.69
2023-01-06T12:07:04.484Z,101052.25
2023-01-06T12:09:30.846Z,101041.19
2023-01-06T12:14:41.149Z,101047.94
2023-01-06T12:17:07.573Z,101036.00
2023-01-06T12:19:34.041Z,101039.19
2023-01-06T12:22:00.380Z,101040.75
2023-01-06T12:24:26.780Z,101039.19
2023-01-06T12:29:37.252Z,101037.16
2023-01-06T12:32:03.647Z,101034.81
2023-01-06T12:34:30.049Z,101035.19
2023-01-06T12:36:56.420Z,101035.97
2023-01-06T12:39:22.984Z,101019.34
2023-01-06T12:44:33.635Z,101033.28
2023-01-06T12:47:00.100Z,101016.97
2023-01-06T12:49:26.479Z,101014.19
2023-01-06T12:51:52.862Z,101013.00
2023-01-06T12:54:21.170Z,101016.19
2023-01-06T12:59:43.607Z,101024.03
2023-01-06T13:02:10.238Z,101027.19
2023-01-06T13:04:36.789Z,101039.13
2023-01-06T13:07:04.392Z,101031.94
2023-01-06T13:09:31.797Z,101031.56
2023-01-06T13:14:42.269Z,101033.13
2023-01-06T13:17:08.789Z,101024.88
2023-01-06T13:19:35.426Z,101021.66
2023-01-06T13:22:02.762Z,101020.47
2023-01-06T13:24:29.295Z,101017.72
2023-01-06T13:29:49.881Z,101009.34
2023-01-06T13:32:19.064Z,100999.41
2023-01-06T13:34:46.343Z,101002.22
2023-01-06T13:37:12.990Z,100998.25
2023-01-06T13:39:40.347Z,100995.47
2023-01-06T13:44:56.526Z,100999.78
2023-01-06T13:47:23.010Z,100993.06
2023-01-06T13:49:49.475Z,100981.16
2023-01-06T13:52:16.209Z,100977.53
2023-01-06T13:54:45.414Z,100970.41
2023-01-06T13:59:55.693Z,100962.47
2023-01-06T14:02:22.192Z,100965.66
2023-01-06T14:04:49.585Z,100962.09
2023-01-06T14:07:16.034Z,100952.53
2023-01-06T14:09:42.517Z,100940.63
2023-01-06T14:12:09.352Z,100945.78
2023-01-06T14:14:35.897Z,100939.03
2023-01-06T14:17:03.391Z,100947.78
2023-01-06T14:19:30.771Z,100939.81
2023-01-06T14:21:58.029Z,100943.81
2023-01-06T14:24:24.502Z,100943.41
2023-01-06T14:26:51.799Z,100949.38
2023-01-06T14:29:18.327Z,100952.53
2023-01-06T14:31:44.787Z,100951.72
2023-01-06T14:34:11.296Z,100961.66
2023-01-06T14:36:37.936Z,100958.06
2023-01-06T14:39:07.111Z,100967.66
2023-01-06T14:41:33.534Z,100971.97
2023-01-06T14:44:02.795Z,100983.06
2023-01-06T14:46:29.212Z,100981.41
2023-01-06T14:48:55.691Z,100983.44
2023-01-06T14:51:22.077Z,100979.53
2023-01-06T14:53:48.454Z,100986.66
2023-01-06T14:56:15.025Z,100996.63
2023-01-06T14:58:41.418Z,100987.84
2023-01-06T15:01:07.871Z,100981.13
2023-01-06T15:03:34.323Z,100974.31
2023-01-06T15:06:00.685Z,100963.53
2023-01-06T15:08:27.071Z,100960.38
2023-01-06T15:10:53.470Z,100958.72
2023-01-06T15:13:20.906Z,100950.78
2023-01-06T15:15:47.301Z,100947.97
2023-01-06T15:18:13.673Z,100933.72
2023-01-06T15:20:40.039Z,100926.97
2023-01-06T15:23:07.291Z,100922.19
2023-01-06T15:25:33.645Z,100913.88
2023-01-06T15:28:00.039Z,100916.22
2023-01-06T15:33:20.241Z,100909.91
2023-01-06T15:35:46.834Z,100907.94
2023-01-06T15:38:13.240Z,100907.97
2023-01-06T15:40:39.634Z,100907.22
2023-01-06T15:43:06.084Z,100902.38
2023-01-06T15:48:17.070Z,100899.69
2023-01-06T15:50:43.463Z,100903.66
2023-01-06T15:53:09.855Z,100901.97
2023-01-06T15:55:36.198Z,100898.75
2023-01-06T15:58:02.594Z,100903.50
2023-01-06T16:03:13.106Z,100902.28
2023-01-06T16:05:40.390Z,100892.78
2023-01-06T16:08:06.823Z,100898.31
2023-01-06T16:10:33.209Z,100902.69
2023-01-06T16:12:59.758Z,100899.53
2023-01-06T16:18:10.746Z,100884.41
2023-01-06T16:20:37.139Z,100889.97
2023-01-06T16:23:06.368Z,100882.44
2023-01-06T16:25:33.640Z,100882.84
2023-01-06T16:28:02.883Z,100870.91
2023-01-06T16:33:23.025Z,100870.06
2023-01-06T16:35:49.420Z,100857.34
2023-01-06T16:38:15.815Z,100853.38
2023-01-06T16:40:42.177Z,100849.00
2023-01-06T16:43:09.439Z,100847.84
2023-01-06T16:48:30.437Z,100847.81
2023-01-06T16:50:56.799Z,100839.50
2023-01-06T16:53:24.108Z,100840.44
2023-01-06T16:55:50.927Z,100847.59
2023-01-06T16:58:17.371Z,100843.63
2023-01-06T17:03:28.769Z,100843.63
2023-01-06T17:05:55.209Z,100845.19
2023-01-06T17:08:21.678Z,100841.25
2023-01-06T17:10:48.118Z,100832.50
2023-01-06T17:13:14.567Z,100824.97
2023-01-06T17:18:30.265Z,100798.38
2023-01-06T17:20:56.724Z,100810.25
2023-01-06T17:23:24.020Z,100812.28
2023-01-06T17:25:52.323Z,100818.63
2023-01-06T17:28:18.678Z,100810.66
2023-01-06T17:33:39.408Z,100795.94
2023-01-06T17:36:08.597Z,100790.78
2023-01-06T17:38:35.057Z,100801.50
2023-01-06T17:41:01.474Z,100798.75
2023-01-06T17:43:27.970Z,100805.47
2023-01-06T17:48:49.398Z,100787.25
2023-01-06T17:51:15.855Z,100790.44
2023-01-06T17:53:42.313Z,100782.06
2023-01-06T17:56:09.019Z,100783.28
2023-01-06T17:58:36.293Z,100787.63
2023-01-06T18:03:48.548Z,100775.31
2023-01-06T18:06:15.021Z,100770.97
2023-01-06T18:08:43.374Z,100768.19
2023-01-06T18:11:09.958Z,100756.25
2023-01-06T18:13:36.604Z,100758.66
2023-01-06T18:16:03.130Z,100761.03
2023-01-06T18:18:30.399Z,100761.03
2023-01-06T18:20:58.758Z,100753.09
2023-01-06T18:23:27.079Z,100749.13
2023-01-06T18:25:54.330Z,100751.50
2023-01-06T18:28:20.786Z,100747.13
2023-01-06T18:30:49.221Z,100748.28
2023-01-06T18:33:16.505Z,100749.13
2023-01-06T18:35:43.012Z,100750.69
2023-01-06T18:38:09.506Z,100738.00
2023-01-06T18:40:38.718Z,100726.44
2023-01-06T18:43:05.982Z,100717.78
2023-01-06T18:45:35.341Z,100722.91
2023-01-06T18:48:01.909Z,100717.38
2023-01-06T18:50:30.240Z,100710.59
2023-01-06T18:52:56.716Z,100708.22
2023-01-06T18:55:23.205Z,100710.22
2023-01-06T18:57:49.680Z,100702.69
2023-01-06T19:00:16.592Z,100695.13
2023-01-06T19:02:45.823Z,100702.66
2023-01-06T19:05:13.086Z,100706.22
2023-01-06T19:07:43.074Z,100699.50
2023-01-06T19:10:09.568Z,100701.88
2023-01-06T19:12:37.900Z,100700.28
2023-01-06T19:15:04.415Z,100695.50
2023-01-06T19:17:30.907Z,100691.56
2023-01-06T19:20:00.878Z,100684.00
2023-01-06T19:22:27.565Z,100681.66
2023-01-06T19:24:57.525Z,100684.81
2023-01-06T19:27:26.738Z,100678.44
2023-01-06T19:29:54.092Z,100678.06
2023-01-06T19:32:20.536Z,100679.28
2023-01-06T19:37:41.165Z,100675.31
2023-01-06T19:40:08.653Z,100675.69
2023-01-06T19:42:35.982Z,100681.28
2023-01-06T19:45:02.462Z,100670.22
2023-01-06T19:47:28.981Z,100671.75
2023-01-06T19:52:41.145Z,100670.56
2023-01-06T19:55:09.463Z,100666.97
2023-01-06T19:57:37.799Z,100663.41
2023-01-06T20:00:04.339Z,100661.00
2023-01-06T20:02:33.667Z,100658.63
2023-01-06T20:07:49.022Z,100657.06
2023-01-06T20:10:15.540Z,100661.41
2023-01-06T20:12:43.047Z,100648.75
2023-01-06T20:15:09.497Z,100652.28
2023-01-06T20:17:36.767Z,100643.94
2023-01-06T20:22:57.177Z,100655.84
2023-01-06T20:25:25.523Z,100649.50
2023-01-06T20:27:52.075Z,100649.94
2023-01-06T20:30:18.753Z,100652.28
2023-01-06T20:32:45.300Z,100640.38
2023-01-06T20:37:59.272Z,100656.28
2023-01-06T20:40:27.585Z,100656.28
2023-01-06T20:42:54.251Z,100650.34
2023-01-06T20:45:21.643Z,100647.94
2023-01-06T20:47:48.123Z,100657.06
2023-01-06T20:53:10.573Z,100663.78
2023-01-06T20:55:37.255Z,100665.00
2023-01-06T20:58:05.623Z,100665.03
2023-01-06T21:00:35.586Z,100671.00
2023-01-06T21:03:03.238Z,100669.41
2023-01-06T21:08:18.647Z,100675.34
2023-01-06T21:10:45.162Z,100671.78
2023-01-06T21:13:11.751Z,100682.06
2023-01-06T21:15:38.267Z,100668.97
2023-01-06T21:18:04.726Z,100670.22
2023-01-06T21:23:27.304Z,100664.66
2023-01-06T21:25:53.843Z,100663.47
2023-01-06T21:28:20.301Z,100658.28
2023-01-06T21:30:47.689Z,100666.25
2023-01-06T21:33:14.188Z,100666.25
2023-01-06T21:38:37.499Z,100662.28
2023-01-06T21:41:04.162Z,100663.44
2023-01-06T21:43:30.678Z,100653.50
2023-01-06T21:45:58.128Z,100659.09
2023-01-06T21:48:25.600Z,100657.88
2023-01-06T21:53:37.371Z,100663.06
2023-01-06T21:56:03.862Z,100662.66
2023-01-06T21:58:31.476Z,100663.84
2023-01-06T22:00:58.000Z,100662.66
2023-01-06T22:03:25.460Z,100665.03
2023-01-06T22:08:46.065Z,100671.34
2023-01-06T22:11:13.116Z,100670.22
2023-01-06T22:13:39.573Z,100669.00
2023-01-06T22:16:06.884Z,100663.06
2023-01-06T22:18:33.419Z,100671.81
2023-01-06T22:23:43.650Z,100681.31
2023-01-06T22:26:10.943Z,100684.09
2023-01-06T22:28:37.385Z,100682.53
2023-01-06T22:31:03.932Z,100689.66
2023-01-06T22:33:30.343Z,100693.66
2023-01-06T22:38:56.103Z,100692.88
2023-01-06T22:41:22.629Z,100698.44
2023-01-06T22:43:50.919Z,100702.78
2023-01-06T22:46:17.477Z,100698.00
2023-01-06T22:48:45.631Z,100699.59
2023-01-06T22:53:56.287Z,100691.28
2023-01-06T22:56:23.574Z,100681.75
2023-01-06T22:58:50.175Z,100680.16
2023-01-06T23:01:17.510Z,100677.38
2023-01-06T23:03:43.944Z,100684.91
2023-01-06T23:09:05.189Z,100696.81
2023-01-06T23:11:31.664Z,100705.94
2023-01-06T23:13:58.099Z,100709.56
2023-01-06T23:16:27.401Z,100707.94
2023-01-06T23:18:54.039Z,100709.56
2023-01-06T23:21:21.900Z,100708.75
2023-01-06T23:23:48.415Z,100709.94
2023-01-06T23:26:14.817Z,100710.72
2023-01-06T23:28:42.077Z,100719.06
2023-01-06T23:31:08.646Z,100722.25
2023-01-06T23:33:35.056Z,100720.69
2023-01-06T23:36:01.444Z,100727.41
2023-01-06T23:38:27.865Z,100729.41
2023-01-06T23:40:54.236Z,100733.75
2023-01-06T23:43:20.638Z,100730.59
2023-01-06T23:45:47.008Z,100730.19
2023-01-06T23:48:14.300Z,100739.72
2023-01-06T23:50:40.679Z,100746.09
2023-01-06T23:53:07.047Z,100737.75
2023-01-06T23:55:33.441Z,100737.75
2023-01-06T23:57:59.809Z,100735.75
